sensor_id;sensor_type;location;lat;lon;timestamp;pressure;altitude;pressure_sealevel;temperature;humidity
21826;BME280;11075;47.944;11.776;2023-12-14T00:00:11;93618.72;;;4.14;58.02
21826;BME280;11075;47.944;11.776;2023-12-14T00:02:38;93619.47;;;4.38;56.70
21826;BME280;11075;47.944;11.776;2023-12-14T00:05:05;93624.44;;;4.21;57.21
21826;BME280;11075;47.944;11.776;2023-12-14T00:07:32;93630.06;;;2.90;61.75
21826;BME280;11075;47.944;11.776;2023-12-14T00:09:59;93626.84;;;3.75;59.83
21826;BME280;11075;47.944;11.776;2023-12-14T00:12:26;93629.69;;;3.02;62.10
21826;BME280;11075;47.944;11.776;2023-12-14T00:14:56;93629.88;;;3.39;61.59
21826;BME280;11075;47.944;11.776;2023-12-14T00:17:24;93642.38;;;2.65;64.53
21826;BME280;11075;47.944;11.776;2023-12-14T00:19:51;93634.97;;;3.54;60.34
21826;BME280;11075;47.944;11.776;2023-12-14T00:22:17;93640.88;;;3.70;59.59
21826;BME280;11075;47.944;11.776;2023-12-14T00:24:44;93645.75;;;3.34;61.29
21826;BME280;11075;47.944;11.776;2023-12-14T00:27:14;93647.16;;;2.92;63.99
21826;BME280;11075;47.944;11.776;2023-12-14T00:29:40;93647.53;;;3.39;61.60
21826;BME280;11075;47.944;11.776;2023-12-14T00:32:07;93643.47;;;3.99;59.02
21826;BME280;11075;47.944;11.776;2023-12-14T00:34:36;93645.78;;;3.29;61.81
21826;BME280;11075;47.944;11.776;2023-12-14T00:37:14;93656.47;;;3.67;60.73
21826;BME280;11075;47.944;11.776;2023-12-14T00:39:45;93656.47;;;3.43;60.77
21826;BME280;11075;47.944;11.776;2023-12-14T00:42:21;93661.63;;;4.24;58.83
21826;BME280;11075;47.944;11.776;2023-12-14T00:44:50;93673.81;;;3.78;60.74
21826;BME280;11075;47.944;11.776;2023-12-14T00:47:19;93673.13;;;3.09;62.23
21826;BME280;11075;47.944;11.776;2023-12-14T00:49:46;93682.72;;;4.06;61.06
21826;BME280;11075;47.944;11.776;2023-12-14T00:52:13;93678.56;;;3.76;61.35
21826;BME280;11075;47.944;11.776;2023-12-14T00:54:40;93680.66;;;3.21;61.99
21826;BME280;11075;47.944;11.776;2023-12-14T00:57:07;93688.81;;;3.53;62.51
21826;BME280;11075;47.944;11.776;2023-12-14T00:59:34;93693.97;;;2.72;64.67
21826;BME280;11075;47.944;11.776;2023-12-14T01:02:01;93692.06;;;3.69;60.09
21826;BME280;11075;47.944;11.776;2023-12-14T01:04:28;93708.91;;;4.26;59.42
21826;BME280;11075;47.944;11.776;2023-12-14T01:07:03;93706.72;;;3.56;61.54
21826;BME280;11075;47.944;11.776;2023-12-14T01:09:30;93708.91;;;4.26;59.54
21826;BME280;11075;47.944;11.776;2023-12-14T01:11:57;93714.63;;;4.33;58.44
21826;BME280;11075;47.944;11.776;2023-12-14T01:14:24;93718.41;;;2.77;64.76
21826;BME280;11075;47.944;11.776;2023-12-14T01:16:51;93724.03;;;3.96;60.45
21826;BME280;11075;47.944;11.776;2023-12-14T01:19:18;93721.19;;;3.59;60.72
21826;BME280;11075;47.944;11.776;2023-12-14T01:21:45;93727.53;;;4.35;59.13
21826;BME280;11075;47.944;11.776;2023-12-14T01:24:12;93732.09;;;3.52;62.56
21826;BME280;11075;47.944;11.776;2023-12-14T01:26:38;93727.31;;;3.83;60.31
21826;BME280;11075;47.944;11.776;2023-12-14T01:29:05;93739.91;;;4.15;59.39
21826;BME280;11075;47.944;11.776;2023-12-14T01:31:32;93735.53;;;3.19;61.86
21826;BME280;11075;47.944;11.776;2023-12-14T01:33:59;93731.28;;;6.61;53.57
21826;BME280;11075;47.944;11.776;2023-12-14T01:36:27;93735.50;;;7.79;49.08
21826;BME280;11075;47.944;11.776;2023-12-14T01:38:54;93739.03;;;7.97;47.98
21826;BME280;11075;47.944;11.776;2023-12-14T01:41:21;93748.81;;;8.19;47.65
21826;BME280;11075;47.944;11.776;2023-12-14T01:43:48;93747.91;;;8.23;47.75
21826;BME280;11075;47.944;11.776;2023-12-14T01:46:18;93731.97;;;6.26;50.62
21826;BME280;11075;47.944;11.776;2023-12-14T01:48:45;93749.47;;;7.93;47.64
21826;BME280;11075;47.944;11.776;2023-12-14T01:51:12;93744.47;;;7.25;49.83
21826;BME280;11075;47.944;11.776;2023-12-14T01:53:41;93742.91;;;6.88;49.61
21826;BME280;11075;47.944;11.776;2023-12-14T01:56:09;93753.13;;;7.75;48.03
21826;BME280;11075;47.944;11.776;2023-12-14T01:58:36;93757.22;;;7.36;48.98
21826;BME280;11075;47.944;11.776;2023-12-14T02:03:44;93760.63;;;8.04;46.83
21826;BME280;11075;47.944;11.776;2023-12-14T02:06:13;93785.72;;;8.60;46.23
21826;BME280;11075;47.944;11.776;2023-12-14T02:08:40;93772.94;;;8.31;46.64
21826;BME280;11075;47.944;11.776;2023-12-14T02:11:16;93776.13;;;7.79;47.23
21826;BME280;11075;47.944;11.776;2023-12-14T02:14:17;93774.91;;;8.56;45.35
21826;BME280;11075;47.944;11.776;2023-12-14T02:16:47;93782.53;;;8.89;45.28
21826;BME280;11075;47.944;11.776;2023-12-14T02:19:21;93784.66;;;7.99;46.67
21826;BME280;11075;47.944;11.776;2023-12-14T02:21:51;93769.28;;;7.87;46.17
21826;BME280;11075;47.944;11.776;2023-12-14T02:24:21;93774.00;;;8.21;46.29
21826;BME280;11075;47.944;11.776;2023-12-14T02:26:47;93789.50;;;8.28;46.45
21826;BME280;11075;47.944;11.776;2023-12-14T02:29:29;93783.59;;;6.83;49.01
21826;BME280;11075;47.944;11.776;2023-12-14T02:31:56;93800.06;;;8.50;45.95
21826;BME280;11075;47.944;11.776;2023-12-14T02:34:23;93806.16;;;8.82;44.69
21826;BME280;11075;47.944;11.776;2023-12-14T02:36:52;93784.25;;;7.02;48.40
21826;BME280;11075;47.944;11.776;2023-12-14T02:39:22;93807.38;;;8.36;46.20
21826;BME280;11075;47.944;11.776;2023-12-14T02:41:59;93800.16;;;7.02;48.78
21826;BME280;11075;47.944;11.776;2023-12-14T02:44:32;93801.91;;;8.41;45.57
21826;BME280;11075;47.944;11.776;2023-12-14T02:47:11;93810.31;;;5.99;51.53
21826;BME280;11075;47.944;11.776;2023-12-14T02:49:42;93799.03;;;7.98;47.19
21826;BME280;11075;47.944;11.776;2023-12-14T02:52:15;93790.34;;;7.03;48.24
21826;BME280;11075;47.944;11.776;2023-12-14T02:54:42;93806.28;;;6.62;49.88
21826;BME280;11075;47.944;11.776;2023-12-14T02:57:10;93807.66;;;6.86;48.99
21826;BME280;11075;47.944;11.776;2023-12-14T02:59:37;93815.16;;;6.11;51.38
21826;BME280;11075;47.944;11.776;2023-12-14T03:02:04;93817.44;;;7.49;48.66
21826;BME280;11075;47.944;11.776;2023-12-14T03:04:31;93819.13;;;8.12;46.86
21826;BME280;11075;47.944;11.776;2023-12-14T03:06:58;93804.66;;;7.15;48.76
21826;BME280;11075;47.944;11.776;2023-12-14T03:09:29;93817.78;;;8.24;46.51
21826;BME280;11075;47.944;11.776;2023-12-14T03:11:56;93820.44;;;6.71;49.21
21826;BME280;11075;47.944;11.776;2023-12-14T03:14:23;93831.63;;;7.31;49.03
21826;BME280;11075;47.944;11.776;2023-12-14T03:16:52;93831.19;;;7.15;48.03
21826;BME280;11075;47.944;11.776;2023-12-14T03:19:19;93843.91;;;7.77;47.35
21826;BME280;11075;47.944;11.776;2023-12-14T03:21:46;93832.41;;;8.12;45.36
21826;BME280;11075;47.944;11.776;2023-12-14T03:24:13;93848.31;;;8.04;46.73
21826;BME280;11075;47.944;11.776;2023-12-14T03:26:40;93852.84;;;7.81;47.22
21826;BME280;11075;47.944;11.776;2023-12-14T03:29:07;93865.22;;;7.86;46.98
21826;BME280;11075;47.944;11.776;2023-12-14T03:31:37;93870.34;;;6.36;50.39
21826;BME280;11075;47.944;11.776;2023-12-14T03:34:04;93861.56;;;6.96;48.55
21826;BME280;11075;47.944;11.776;2023-12-14T03:36:32;93874.22;;;6.44;50.17
21826;BME280;11075;47.944;11.776;2023-12-14T03:38:59;93875.31;;;6.70;48.98
21826;BME280;11075;47.944;11.776;2023-12-14T03:41:26;93880.03;;;6.87;48.99
21826;BME280;11075;47.944;11.776;2023-12-14T03:43:53;93887.19;;;6.45;49.30
21826;BME280;11075;47.944;11.776;2023-12-14T03:46:20;93897.72;;;7.19;48.33
21826;BME280;11075;47.944;11.776;2023-12-14T03:48:50;93893.97;;;6.19;49.75
21826;BME280;11075;47.944;11.776;2023-12-14T03:51:19;93900.75;;;5.17;51.50
21826;BME280;11075;47.944;11.776;2023-12-14T03:53:46;93899.75;;;5.51;51.61
21826;BME280;11075;47.944;11.776;2023-12-14T03:56:13;93907.59;;;6.45;48.94
21826;BME280;11075;47.944;11.776;2023-12-14T03:58:40;93908.72;;;6.39;49.12
21826;BME280;11075;47.944;11.776;2023-12-14T04:01:07;93899.19;;;5.73;49.42
21826;BME280;11075;47.944;11.776;2023-12-14T04:03:34;93913.91;;;7.45;47.18
21826;BME280;11075;47.944;11.776;2023-12-14T04:06:04;93923.00;;;8.02;45.84
21826;BME280;11075;47.944;11.776;2023-12-14T04:08:31;93902.03;;;7.15;46.26
21826;BME280;11075;47.944;11.776;2023-12-14T04:11:01;93918.81;;;7.65;46.55
21826;BME280;11075;47.944;11.776;2023-12-14T04:13:28;93913.75;;;7.00;47.08
21826;BME280;11075;47.944;11.776;2023-12-14T04:15:54;93930.13;;;6.61;49.02
21826;BME280;11075;47.944;11.776;2023-12-14T04:18:21;93943.47;;;6.37;48.95
21826;BME280;11075;47.944;11.776;2023-12-14T04:20:48;93946.59;;;6.26;50.28
21826;BME280;11075;47.944;11.776;2023-12-14T04:23:15;93949.78;;;7.42;47.01
21826;BME280;11075;47.944;11.776;2023-12-14T04:25:42;93945.25;;;7.43;46.88
21826;BME280;11075;47.944;11.776;2023-12-14T04:28:09;93951.63;;;6.73;48.49
21826;BME280;11075;47.944;11.776;2023-12-14T04:30:40;93964.41;;;8.39;44.90
21826;BME280;11075;47.944;11.776;2023-12-14T04:33:07;93962.28;;;7.28;47.26
21826;BME280;11075;47.944;11.776;2023-12-14T04:35:34;93956.88;;;7.97;45.51
21826;BME280;11075;47.944;11.776;2023-12-14T04:38:03;93970.63;;;7.49;46.56
21826;BME280;11075;47.944;11.776;2023-12-14T04:40:33;93981.72;;;6.82;47.79
21826;BME280;11075;47.944;11.776;2023-12-14T04:43:00;93978.69;;;7.03;47.20
21826;BME280;11075;47.944;11.776;2023-12-14T04:45:27;93981.75;;;7.24;46.75
21826;BME280;11075;47.944;11.776;2023-12-14T04:47:57;93985.03;;;6.42;48.66
21826;BME280;11075;47.944;11.776;2023-12-14T04:50:26;93985.66;;;7.54;46.51
21826;BME280;11075;47.944;11.776;2023-12-14T04:52:53;94000.91;;;6.61;48.29
21826;BME280;11075;47.944;11.776;2023-12-14T04:55:20;94000.19;;;6.88;47.97
21826;BME280;11075;47.944;11.776;2023-12-14T04:57:47;94012.06;;;6.06;49.68
21826;BME280;11075;47.944;11.776;2023-12-14T05:00:15;94008.97;;;6.69;48.54
21826;BME280;11075;47.944;11.776;2023-12-14T05:02:46;94007.94;;;6.51;49.12
21826;BME280;11075;47.944;11.776;2023-12-14T05:05:14;94020.66;;;5.55;50.82
21826;BME280;11075;47.944;11.776;2023-12-14T05:07:41;94021.56;;;6.26;49.88
21826;BME280;11075;47.944;11.776;2023-12-14T05:10:09;94016.09;;;6.88;48.34
21826;BME280;11075;47.944;11.776;2023-12-14T05:12:47;94021.59;;;5.65;51.05
21826;BME280;11075;47.944;11.776;2023-12-14T05:15:48;94035.94;;;5.40;51.71
21826;BME280;11075;47.944;11.776;2023-12-14T05:18:14;94038.03;;;5.85;50.00
21826;BME280;11075;47.944;11.776;2023-12-14T05:20:45;94032.44;;;5.87;50.04
21826;BME280;11075;47.944;11.776;2023-12-14T05:23:15;94043.69;;;6.16;49.91
21826;BME280;11075;47.944;11.776;2023-12-14T05:25:42;94046.34;;;5.02;51.85
21826;BME280;11075;47.944;11.776;2023-12-14T05:28:09;94052.59;;;4.53;53.05
21826;BME280;11075;47.944;11.776;2023-12-14T05:30:36;94055.91;;;5.75;50.33
21826;BME280;11075;47.944;11.776;2023-12-14T05:33:03;94054.34;;;5.26;50.88
21826;BME280;11075;47.944;11.776;2023-12-14T05:35:30;94057.25;;;4.96;51.64
21826;BME280;11075;47.944;11.776;2023-12-14T05:37:57;94063.66;;;6.09;49.25
21826;BME280;11075;47.944;11.776;2023-12-14T05:40:27;94078.94;;;6.73;47.58
21826;BME280;11075;47.944;11.776;2023-12-14T05:43:50;94071.31;;;6.85;47.37
21826;BME280;11075;47.944;11.776;2023-12-14T05:46:23;94086.69;;;6.51;48.13
21826;BME280;11075;47.944;11.776;2023-12-14T05:48:50;94081.13;;;6.85;47.01
21826;BME280;11075;47.944;11.776;2023-12-14T05:51:28;94092.56;;;5.63;49.31
21826;BME280;11075;47.944;11.776;2023-12-14T05:54:05;94099.69;;;6.85;47.59
21826;BME280;11075;47.944;11.776;2023-12-14T05:59:53;94103.09;;;6.53;48.05
21826;BME280;11075;47.944;11.776;2023-12-14T06:02:20;94117.41;;;6.33;48.44
21826;BME280;11075;47.944;11.776;2023-12-14T06:04:46;94110.16;;;7.41;45.99
21826;BME280;11075;47.944;11.776;2023-12-14T06:07:16;94121.41;;;5.64;49.12
21826;BME280;11075;47.944;11.776;2023-12-14T06:09:43;94124.50;;;5.47;50.21
21826;BME280;11075;47.944;11.776;2023-12-14T06:12:10;94132.09;;;6.02;48.98
21826;BME280;11075;47.944;11.776;2023-12-14T06:14:37;94132.09;;;6.02;48.46
21826;BME280;11075;47.944;11.776;2023-12-14T06:17:04;94130.06;;;6.17;47.92
21826;BME280;11075;47.944;11.776;2023-12-14T06:19:31;94145.00;;;6.89;47.11
21826;BME280;11075;47.944;11.776;2023-12-14T06:21:59;94145.03;;;5.84;48.65
21826;BME280;11075;47.944;11.776;2023-12-14T06:24:26;94159.38;;;7.01;46.53
21826;BME280;11075;47.944;11.776;2023-12-14T06:26:52;94159.34;;;6.69;46.48
21826;BME280;11075;47.944;11.776;2023-12-14T06:29:19;94163.13;;;7.00;46.06
21826;BME280;11075;47.944;11.776;2023-12-14T06:31:47;94167.22;;;6.12;48.04
21826;BME280;11075;47.944;11.776;2023-12-14T06:34:14;94176.03;;;5.26;50.17
21826;BME280;11075;47.944;11.776;2023-12-14T06:36:44;94181.41;;;4.77;51.82
21826;BME280;11075;47.944;11.776;2023-12-14T06:39:12;94182.56;;;6.34;47.98
21826;BME280;11075;47.944;11.776;2023-12-14T06:41:39;94178.19;;;5.77;49.72
21826;BME280;11075;47.944;11.776;2023-12-14T06:44:06;94182.13;;;6.51;46.80
21826;BME280;11075;47.944;11.776;2023-12-14T06:46:35;94192.28;;;6.20;48.21
21826;BME280;11075;47.944;11.776;2023-12-14T06:49:03;94196.03;;;5.66;49.25
21826;BME280;11075;47.944;11.776;2023-12-14T06:51:30;94211.56;;;4.16;53.00
21826;BME280;11075;47.944;11.776;2023-12-14T06:53:57;94207.13;;;5.05;51.01
21826;BME280;11075;47.944;11.776;2023-12-14T06:56:24;94206.63;;;4.59;52.98
21826;BME280;11075;47.944;11.776;2023-12-14T06:58:51;94214.38;;;4.89;51.64
21826;BME280;11075;47.944;11.776;2023-12-14T07:01:18;94221.59;;;6.52;48.27
21826;BME280;11075;47.944;11.776;2023-12-14T07:03:45;94220.28;;;5.78;50.12
21826;BME280;11075;47.944;11.776;2023-12-14T07:06:13;94219.22;;;5.50;50.39
21826;BME280;11075;47.944;11.776;2023-12-14T07:08:41;94230.69;;;5.02;51.21
21826;BME280;11075;47.944;11.776;2023-12-14T07:11:09;94240.78;;;5.34;51.45
21826;BME280;11075;47.944;11.776;2023-12-14T07:13:36;94235.91;;;6.28;48.97
21826;BME280;11075;47.944;11.776;2023-12-14T07:16:06;94241.31;;;4.91;51.61
21826;BME280;11075;47.944;11.776;2023-12-14T07:18:37;94242.22;;;6.08;49.99
21826;BME280;11075;47.944;11.776;2023-12-14T07:21:05;94253.53;;;5.89;50.45
21826;BME280;11075;47.944;11.776;2023-12-14T07:23:33;94256.78;;;6.10;49.72
21826;BME280;11075;47.944;11.776;2023-12-14T07:26:01;94257.44;;;5.39;51.27
21826;BME280;11075;47.944;11.776;2023-12-14T07:28:31;94260.84;;;5.74;50.65
21826;BME280;11075;47.944;11.776;2023-12-14T07:30:58;94276.38;;;7.75;45.61
21826;BME280;11075;47.944;11.776;2023-12-14T07:33:25;94266.00;;;6.84;47.56
21826;BME280;11075;47.944;11.776;2023-12-14T07:35:56;94271.56;;;7.77;45.29
21826;BME280;11075;47.944;11.776;2023-12-14T07:38:22;94276.06;;;6.40;48.61
21826;BME280;11075;47.944;11.776;2023-12-14T07:40:50;94287.69;;;7.29;46.12
21826;BME280;11075;47.944;11.776;2023-12-14T07:43:19;94289.31;;;6.88;47.13
21826;BME280;11075;47.944;11.776;2023-12-14T07:45:47;94291.41;;;7.09;47.18
21826;BME280;11075;47.944;11.776;2023-12-14T07:48:17;94290.84;;;7.12;47.04
21826;BME280;11075;47.944;11.776;2023-12-14T07:50:44;94280.63;;;5.52;49.28
21826;BME280;11075;47.944;11.776;2023-12-14T07:53:12;94299.09;;;6.44;48.68
21826;BME280;11075;47.944;11.776;2023-12-14T07:55:39;94294.25;;;6.94;47.14
21826;BME280;11075;47.944;11.776;2023-12-14T07:58:06;94302.44;;;6.55;48.38
21826;BME280;11075;47.944;11.776;2023-12-14T08:00:34;94296.97;;;6.17;48.51
21826;BME280;11075;47.944;11.776;2023-12-14T08:03:01;94301.75;;;5.13;51.97
21826;BME280;11075;47.944;11.776;2023-12-14T08:05:28;94301.91;;;6.29;48.83
21826;BME280;11075;47.944;11.776;2023-12-14T08:07:55;94312.66;;;5.85;50.10
21826;BME280;11075;47.944;11.776;2023-12-14T08:10:22;94316.22;;;5.99;50.43
21826;BME280;11075;47.944;11.776;2023-12-14T08:12:49;94318.31;;;6.02;50.66
21826;BME280;11075;47.944;11.776;2023-12-14T08:15:18;94323.09;;;7.01;48.58
21826;BME280;11075;47.944;11.776;2023-12-14T08:17:45;94329.97;;;7.02;48.99
21826;BME280;11075;47.944;11.776;2023-12-14T08:20:12;94333.88;;;7.85;47.25
21826;BME280;11075;47.944;11.776;2023-12-14T08:22:40;94332.41;;;7.92;46.04
21826;BME280;11075;47.944;11.776;2023-12-14T08:25:14;94343.69;;;7.84;47.28
21826;BME280;11075;47.944;11.776;2023-12-14T08:27:42;94340.41;;;7.36;48.56
21826;BME280;11075;47.944;11.776;2023-12-14T08:30:11;94344.94;;;7.35;47.86
21826;BME280;11075;47.944;11.776;2023-12-14T08:32:38;94337.81;;;7.49;47.31
21826;BME280;11075;47.944;11.776;2023-12-14T08:35:06;94346.50;;;7.74;47.67
21826;BME280;11075;47.944;11.776;2023-12-14T08:37:35;94352.97;;;8.19;46.11
21826;BME280;11075;47.944;11.776;2023-12-14T08:40:03;94361.16;;;8.36;45.74
21826;BME280;11075;47.944;11.776;2023-12-14T08:42:30;94366.53;;;8.18;46.55
21826;BME280;11075;47.944;11.776;2023-12-14T08:44:57;94362.16;;;7.57;47.99
21826;BME280;11075;47.944;11.776;2023-12-14T08:47:24;94360.31;;;6.96;48.97
21826;BME280;11075;47.944;11.776;2023-12-14T08:49:51;94377.69;;;6.30;50.61
21826;BME280;11075;47.944;11.776;2023-12-14T08:52:18;94377.78;;;8.28;46.52
21826;BME280;11075;47.944;11.776;2023-12-14T08:54:45;94374.59;;;7.00;49.04
21826;BME280;11075;47.944;11.776;2023-12-14T08:57:12;94379.88;;;7.42;48.06
21826;BME280;11075;47.944;11.776;2023-12-14T08:59:39;94392.09;;;8.32;47.48
21826;BME280;11075;47.944;11.776;2023-12-14T09:02:09;94390.97;;;7.26;48.47
21826;BME280;11075;47.944;11.776;2023-12-14T09:04:36;94396.44;;;7.53;48.62
21826;BME280;11075;47.944;11.776;2023-12-14T09:07:03;94388.97;;;7.36;48.05
21826;BME280;11075;47.944;11.776;2023-12-14T09:09:30;94408.72;;;7.49;48.92
21826;BME280;11075;47.944;11.776;2023-12-14T09:11:59;94405.84;;;6.55;50.88
21826;BME280;11075;47.944;11.776;2023-12-14T09:14:26;94407.47;;;7.84;47.32
21826;BME280;11075;47.944;11.776;2023-12-14T09:16:53;94408.19;;;7.28;48.79
21826;BME280;11075;47.944;11.776;2023-12-14T09:19:20;94423.47;;;7.79;48.44
21826;BME280;11075;47.944;11.776;2023-12-14T09:21:47;94423.03;;;8.09;46.96
21826;BME280;11075;47.944;11.776;2023-12-14T09:24:13;94430.63;;;6.93;49.37
21826;BME280;11075;47.944;11.776;2023-12-14T09:26:40;94433.97;;;7.89;47.59
21826;BME280;11075;47.944;11.776;2023-12-14T09:29:08;94425.72;;;8.23;46.23
21826;BME280;11075;47.944;11.776;2023-12-14T09:31:34;94438.19;;;8.09;47.76
21826;BME280;11075;47.944;11.776;2023-12-14T09:34:02;94432.03;;;8.27;47.05
21826;BME280;11075;47.944;11.776;2023-12-14T09:36:30;94423.06;;;7.48;47.82
21826;BME280;11075;47.944;11.776;2023-12-14T09:38:56;94443.66;;;9.24;45.54
21826;BME280;11075;47.944;11.776;2023-12-14T09:41:23;94449.88;;;8.27;47.10
21826;BME280;11075;47.944;11.776;2023-12-14T09:43:51;94447.03;;;7.43;48.85
21826;BME280;11075;47.944;11.776;2023-12-14T09:46:18;94444.06;;;7.26;48.93
21826;BME280;11075;47.944;11.776;2023-12-14T09:48:47;94446.97;;;7.91;47.11
21826;BME280;11075;47.944;11.776;2023-12-14T09:51:17;94453.78;;;6.25;51.14
21826;BME280;11075;47.944;11.776;2023-12-14T09:53:44;94463.53;;;5.95;51.10
21826;BME280;11075;47.944;11.776;2023-12-14T09:56:11;94459.09;;;7.35;48.83
21826;BME280;11075;47.944;11.776;2023-12-14T09:58:37;94456.66;;;7.81;47.46
21826;BME280;11075;47.944;11.776;2023-12-14T10:01:21;94472.00;;;8.73;46.48
21826;BME280;11075;47.944;11.776;2023-12-14T10:03:48;94476.13;;;7.29;49.13
21826;BME280;11075;47.944;11.776;2023-12-14T10:06:17;94478.75;;;7.77;48.81
21826;BME280;11075;47.944;11.776;2023-12-14T10:08:53;94477.00;;;5.54;52.49
21826;BME280;11075;47.944;11.776;2023-12-14T10:11:20;94467.25;;;7.39;49.10
21826;BME280;11075;47.944;11.776;2023-12-14T10:13:47;94481.69;;;6.12;51.90
21826;BME280;11075;47.944;11.776;2023-12-14T10:16:29;94472.13;;;7.32;48.78
21826;BME280;11075;47.944;11.776;2023-12-14T10:18:57;94485.16;;;8.13;47.83
21826;BME280;11075;47.944;11.776;2023-12-14T10:21:28;94486.28;;;6.01;52.12
21826;BME280;11075;47.944;11.776;2023-12-14T10:23:56;94482.22;;;6.53;50.84
21826;BME280;11075;47.944;11.776;2023-12-14T10:26:24;94479.97;;;6.65;50.50
21826;BME280;11075;47.944;11.776;2023-12-14T10:28:52;94488.50;;;6.91;48.91
21826;BME280;11075;47.944;11.776;2023-12-14T10:31:20;94482.28;;;8.61;46.56
21826;BME280;11075;47.944;11.776;2023-12-14T10:33:48;94486.47;;;7.55;48.63
21826;BME280;11075;47.944;11.776;2023-12-14T10:36:19;94485.22;;;7.71;48.63
21826;BME280;11075;47.944;11.776;2023-12-14T10:38:52;94490.97;;;7.78;48.37
21826;BME280;11075;47.944;11.776;2023-12-14T10:41:21;94480.72;;;7.24;48.74
21826;BME280;11075;47.944;11.776;2023-12-14T10:43:51;94495.13;;;7.65;48.23
21826;BME280;11075;47.944;11.776;2023-12-14T10:46:39;94495.66;;;8.24;47.71
21826;BME280;11075;47.944;11.776;2023-12-14T10:49:08;94510.31;;;7.12;49.46
21826;BME280;11075;47.944;11.776;2023-12-14T10:51:36;94502.97;;;8.32;47.50
21826;BME280;11075;47.944;11.776;2023-12-14T10:54:03;94495.94;;;6.89;49.89
21826;BME280;11075;47.944;11.776;2023-12-14T10:56:31;94499.00;;;7.73;48.06
21826;BME280;11075;47.944;11.776;2023-12-14T10:58:58;94511.38;;;9.04;45.83
21826;BME280;11075;47.944;11.776;2023-12-14T11:01:26;94502.88;;;8.37;46.04
21826;BME280;11075;47.944;11.776;2023-12-14T11:03:54;94499.28;;;8.65;45.84
21826;BME280;11075;47.944;11.776;2023-12-14T11:09:04;94511.25;;;8.11;48.03
21826;BME280;11075;47.944;11.776;2023-12-14T11:11:59;94521.78;;;7.55;48.13
21826;BME280;11075;47.944;11.776;2023-12-14T11:14:27;94516.66;;;6.87;49.42
21826;BME280;11075;47.944;11.776;2023-12-14T11:16:55;94525.53;;;8.86;46.58
21826;BME280;11075;47.944;11.776;2023-12-14T11:24:34;94541.00;;;6.60;51.16
21826;BME280;11075;47.944;11.776;2023-12-14T11:27:06;94539.75;;;7.39;49.20
21826;BME280;11075;47.944;11.776;2023-12-14T11:29:36;94538.31;;;8.32;47.46
21826;BME280;11075;47.944;11.776;2023-12-14T11:32:05;94548.53;;;6.48;50.26
21826;BME280;11075;47.944;11.776;2023-12-14T11:34:33;94547.19;;;6.84;49.85
21826;BME280;11075;47.944;11.776;2023-12-14T11:37:00;94555.94;;;7.38;49.38
21826;BME280;11075;47.944;11.776;2023-12-14T11:39:30;94557.47;;;6.13;52.34
21826;BME280;11075;47.944;11.776;2023-12-14T11:42:01;94560.59;;;7.75;48.55
21826;BME280;11075;47.944;11.776;2023-12-14T11:44:29;94564.22;;;7.84;48.34
21826;BME280;11075;47.944;11.776;2023-12-14T11:46:57;94560.84;;;7.78;47.82
21826;BME280;11075;47.944;11.776;2023-12-14T11:49:25;94557.56;;;7.63;47.87
21826;BME280;11075;47.944;11.776;2023-12-14T11:51:55;94550.53;;;8.33;47.36
21826;BME280;11075;47.944;11.776;2023-12-14T11:54:23;94559.50;;;7.52;47.81
21826;BME280;11075;47.944;11.776;2023-12-14T11:56:50;94564.09;;;8.88;46.28
21826;BME280;11075;47.944;11.776;2023-12-14T11:59:18;94563.91;;;8.66;46.31
21826;BME280;11075;47.944;11.776;2023-12-14T12:01:55;94577.34;;;7.75;48.51
21826;BME280;11075;47.944;11.776;2023-12-14T12:04:24;94558.00;;;8.12;47.44
21826;BME280;11075;47.944;11.776;2023-12-14T12:07:04;94571.69;;;6.71;50.37
21826;BME280;11075;47.944;11.776;2023-12-14T12:09:42;94572.63;;;7.91;46.85
21826;BME280;11075;47.944;11.776;2023-12-14T12:12:10;94566.34;;;8.25;47.40
21826;BME280;11075;47.944;11.776;2023-12-14T12:14:41;94576.78;;;8.40;46.89
21826;BME280;11075;47.944;11.776;2023-12-14T12:17:08;94571.19;;;7.27;49.30
21826;BME280;11075;47.944;11.776;2023-12-14T12:19:37;94581.84;;;7.99;48.11
21826;BME280;11075;47.944;11.776;2023-12-14T12:22:04;94566.63;;;8.42;46.65
21826;BME280;11075;47.944;11.776;2023-12-14T12:24:31;94577.00;;;7.82;48.15
21826;BME280;11075;47.944;11.776;2023-12-14T12:27:00;94575.19;;;8.76;46.30
21826;BME280;11075;47.944;11.776;2023-12-14T12:29:27;94585.94;;;8.10;47.66
21826;BME280;11075;47.944;11.776;2023-12-14T12:31:55;94582.19;;;7.92;47.71
21826;BME280;11075;47.944;11.776;2023-12-14T12:34:22;94585.91;;;7.91;48.31
21826;BME280;11075;47.944;11.776;2023-12-14T12:36:49;94565.78;;;7.37;47.37
21826;BME280;11075;47.944;11.776;2023-12-14T12:39:16;94588.88;;;7.08;49.92
21826;BME280;11075;47.944;11.776;2023-12-14T12:41:43;94597.44;;;9.46;45.14
21826;BME280;11075;47.944;11.776;2023-12-14T12:44:10;94582.41;;;7.48;48.43
21826;BME280;11075;47.944;11.776;2023-12-14T12:46:38;94606.03;;;8.77;46.32
21826;BME280;11075;47.944;11.776;2023-12-14T12:49:05;94611.91;;;7.17;49.85
21826;BME280;11075;47.944;11.776;2023-12-14T12:51:32;94607.84;;;7.25;49.69
21826;BME280;11075;47.944;11.776;2023-12-14T12:53:59;94611.63;;;6.85;50.25
21826;BME280;11075;47.944;11.776;2023-12-14T12:56:38;94606.38;;;8.52;46.89
21826;BME280;11075;47.944;11.776;2023-12-14T12:59:05;94607.34;;;7.23;49.61
21826;BME280;11075;47.944;11.776;2023-12-14T13:01:35;94600.06;;;8.48;46.83
21826;BME280;11075;47.944;11.776;2023-12-14T13:04:02;94611.69;;;8.52;46.56
21826;BME280;11075;47.944;11.776;2023-12-14T13:06:31;94619.16;;;7.65;48.61
21826;BME280;11075;47.944;11.776;2023-12-14T13:08:58;94619.31;;;8.40;47.43
21826;BME280;11075;47.944;11.776;2023-12-14T13:11:24;94629.56;;;8.70;45.85
21826;BME280;11075;47.944;11.776;2023-12-14T13:13:52;94637.09;;;7.49;48.53
21826;BME280;11075;47.944;11.776;2023-12-14T13:16:19;94642.59;;;7.58;49.03
21826;BME280;11075;47.944;11.776;2023-12-14T13:18:46;94644.69;;;7.61;49.33
21826;BME280;11075;47.944;11.776;2023-12-14T13:21:13;94652.19;;;7.82;48.71